Time;durP1;ratioP1;P1;durP2;ratioP2;P2;SDS_P1;SDS_P2;PMS_P1;PMS_P2;Temp;Humidity;BMP_temperature;BMP_pressure;BME280_temperature;BME280_humidity;BME280_pressure;Samples;Min_cycle;Max_cycle;Signal;HPM_P1;HPM_P2
2023/04/30 00:01:39;;;;;;;8.77;7.30;;;;;;;;;;5038154;28;20184;-89
2023/04/30 00:04:05;;;;;;;9.67;7.53;;;;;;;;;;5037327;28;20176;-88
2023/04/30 00:06:31;;;;;;;9.90;7.33;;;;;;;;;;5037903;28;20172;-89
2023/04/30 00:08:57;;;;;;;9.33;7.10;;;;;;;;;;5037786;28;20198;-89
2023/04/30 00:11:24;;;;;;;10.33;7.30;;;;;;;;;;5037733;28;20267;-89
2023/04/30 00:13:50;;;;;;;7.97;7.17;;;;;;;;;;5037591;28;20218;-89
2023/04/30 00:16:17;;;;;;;9.20;7.63;;;;;;;;;;5037386;28;20274;-89
2023/04/30 00:18:43;;;;;;;9.30;7.40;;;;;;;;;;5036224;28;20210;-88
2023/04/30 00:21:09;;;;;;;8.37;6.97;;;;;;;;;;5037218;28;20176;-89
2023/04/30 00:23:38;;;;;;;8.70;7.27;;;;;;;;;;5035832;28;20279;-88
2023/04/30 00:26:04;;;;;;;9.30;7.27;;;;;;;;;;5037379;28;20203;-88
2023/04/30 00:28:30;;;;;;;8.80;6.83;;;;;;;;;;5020515;28;20219;-88
2023/04/30 00:30:56;;;;;;;8.23;7.37;;;;;;;;;;5020629;28;20226;-88
2023/04/30 00:33:22;;;;;;;9.97;7.03;;;;;;;;;;5037123;28;20242;-88
2023/04/30 00:35:49;;;;;;;9.83;7.50;;;;;;;;;;5034925;28;20176;-89
2023/04/30 00:38:15;;;;;;;9.47;7.30;;;;;;;;;;5037224;28;20187;-89
2023/04/30 00:40:42;;;;;;;12.63;9.23;;;;;;;;;;5020887;28;20188;-89
2023/04/30 00:43:08;;;;;;;20.40;13.70;;;;;;;;;;5017982;28;20322;-88
2023/04/30 00:45:34;;;;;;;16.27;12.03;;;;;;;;;;5036997;28;20191;-89
2023/04/30 00:48:00;;;;;;;14.87;11.03;;;;;;;;;;5020539;28;20241;-89
2023/04/30 00:50:26;;;;;;;13.77;9.20;;;;;;;;;;5036730;28;20227;-88
2023/04/30 00:52:55;;;;;;;11.57;8.93;;;;;;;;;;5036648;28;20245;-89
2023/04/30 00:55:21;;;;;;;12.83;8.60;;;;;;;;;;5036838;28;20184;-89
2023/04/30 00:57:47;;;;;;;9.57;8.27;;;;;;;;;;5036516;28;20179;-89
2023/04/30 01:00:16;;;;;;;12.83;8.40;;;;;;;;;;5036581;28;20180;-89
2023/04/30 01:02:42;;;;;;;11.03;8.43;;;;;;;;;;5036475;28;20179;-89
2023/04/30 01:05:08;;;;;;;9.87;8.63;;;;;;;;;;5037150;28;20176;-89
2023/04/30 01:07:37;;;;;;;11.80;7.67;;;;;;;;;;5036941;28;20180;-88
2023/04/30 01:10:03;;;;;;;10.63;8.30;;;;;;;;;;5036649;28;20204;-89
2023/04/30 01:12:42;;;;;;;9.60;7.77;;;;;;;;;;5019797;28;20180;-89
2023/04/30 01:15:09;;;;;;;10.93;8.00;;;;;;;;;;5033784;28;20233;-88
2023/04/30 01:17:50;;;;;;;8.67;7.67;;;;;;;;;;5036714;28;20180;-89
2023/04/30 01:20:16;;;;;;;9.37;7.40;;;;;;;;;;5034801;28;20195;-88
2023/04/30 01:22:50;;;;;;;8.20;7.40;;;;;;;;;;5019900;28;20212;-88
2023/04/30 01:25:23;;;;;;;8.40;7.10;;;;;;;;;;5036324;28;20179;-89
2023/04/30 01:27:49;;;;;;;9.45;8.45;;;;;;;;;;5035854;28;20432;-89
2023/04/30 01:30:19;;;;;;;10.07;7.60;;;;;;;;;;5036103;28;20204;-89
2023/04/30 01:32:45;;;;;;;8.98;7.97;;;;;;;;;;5036124;28;20452;-89
2023/04/30 01:35:11;;;;;;;10.55;8.45;;;;;;;;;;5035815;28;20415;-89
2023/04/30 01:37:47;;;;;;;10.57;8.65;;;;;;;;;;5035340;28;20411;-89
2023/04/30 01:40:33;;;;;;;9.60;7.50;;;;;;;;;;5033766;28;20179;-89
2023/04/30 01:43:05;;;;;;;9.90;7.17;;;;;;;;;;5035652;28;20184;-89
2023/04/30 01:45:53;;;;;;;9.43;8.48;;;;;;;;;;5032564;28;20419;-90
2023/04/30 01:48:32;;;;;;;10.80;7.53;;;;;;;;;;5032098;28;20267;-89
2023/04/30 01:51:04;;;;;;;9.80;7.07;;;;;;;;;;5032043;28;20192;-89
2023/04/30 01:53:40;;;;;;;8.43;7.27;;;;;;;;;;5033261;28;20180;-89
2023/04/30 01:56:09;;;;;;;9.05;7.63;;;;;;;;;;5035649;28;20495;-89
2023/04/30 01:58:37;;;;;;;8.30;7.10;;;;;;;;;;5036047;28;20195;-88
2023/04/30 02:01:03;;;;;;;11.07;8.07;;;;;;;;;;5035806;28;20176;-90
2023/04/30 02:03:29;;;;;;;10.33;7.10;;;;;;;;;;5036364;28;20180;-89
2023/04/30 02:05:55;;;;;;;9.93;7.43;;;;;;;;;;5036036;28;20274;-90
2023/04/30 02:08:21;;;;;;;12.43;7.90;;;;;;;;;;5036514;28;20183;-88
2023/04/30 02:10:47;;;;;;;10.47;7.70;;;;;;;;;;5036537;28;20207;-89
2023/04/30 02:13:14;;;;;;;10.43;7.97;;;;;;;;;;5036498;28;20180;-89
2023/04/30 02:15:40;;;;;;;10.30;7.63;;;;;;;;;;5035938;28;20183;-89
2023/04/30 02:18:08;;;;;;;10.83;7.80;;;;;;;;;;5036159;28;20176;-88
2023/04/30 02:20:34;;;;;;;10.93;8.07;;;;;;;;;;5032498;28;20215;-89
2023/04/30 02:23:00;;;;;;;9.90;7.50;;;;;;;;;;5016611;28;20200;-89
2023/04/30 02:25:26;;;;;;;10.03;8.17;;;;;;;;;;5016517;28;20479;-89
2023/04/30 02:27:55;;;;;;;10.00;7.83;;;;;;;;;;5031111;28;20216;-89
2023/04/30 02:30:21;;;;;;;9.00;7.77;;;;;;;;;;5035983;28;20211;-88
2023/04/30 02:32:47;;;;;;;10.05;8.77;;;;;;;;;;5019872;28;20430;-89
2023/04/30 02:35:13;;;;;;;9.47;7.40;;;;;;;;;;5036441;28;20175;-88
2023/04/30 02:37:39;;;;;;;10.30;9.20;;;;;;;;;;5036105;28;20412;-90
2023/04/30 02:40:06;;;;;;;10.80;8.63;;;;;;;;;;5036216;28;20221;-89
2023/04/30 02:42:32;;;;;;;13.73;8.07;;;;;;;;;;5036407;28;20186;-88
2023/04/30 02:45:00;;;;;;;9.83;8.30;;;;;;;;;;5036867;28;20237;-89
2023/04/30 02:47:26;;;;;;;12.47;7.90;;;;;;;;;;5036330;28;20179;-88
2023/04/30 02:49:52;;;;;;;10.02;8.98;;;;;;;;;;5036780;28;20447;-88
2023/04/30 02:52:18;;;;;;;11.80;9.80;;;;;;;;;;5018949;28;20476;-89
2023/04/30 02:54:47;;;;;;;11.38;10.00;;;;;;;;;;5035836;28;20458;-89
2023/04/30 02:57:13;;;;;;;12.38;10.15;;;;;;;;;;5035783;28;20411;-88
2023/04/30 02:59:44;;;;;;;13.13;10.63;;;;;;;;;;5035542;28;20499;-89
2023/04/30 03:02:10;;;;;;;10.75;9.63;;;;;;;;;;5035684;28;20420;-89
2023/04/30 03:04:39;;;;;;;13.52;10.35;;;;;;;;;;5035452;28;20449;-89
2023/04/30 03:07:07;;;;;;;11.38;9.20;;;;;;;;;;5036050;28;20495;-89
2023/04/30 03:09:33;;;;;;;11.40;10.25;;;;;;;;;;5035578;28;20459;-89
2023/04/30 03:11:59;;;;;;;12.45;10.25;;;;;;;;;;5035175;28;20404;-88
2023/04/30 03:14:25;;;;;;;12.35;10.75;;;;;;;;;;5034964;28;20407;-89
2023/04/30 03:16:56;;;;;;;14.77;10.98;;;;;;;;;;5035502;28;20413;-90
2023/04/30 03:19:24;;;;;;;11.40;9.03;;;;;;;;;;5035863;28;20180;-89
2023/04/30 03:21:52;;;;;;;12.50;10.20;;;;;;;;;;5035034;28;20416;-89
2023/04/30 03:24:18;;;;;;;13.63;10.27;;;;;;;;;;5035084;28;20482;-89
2023/04/30 03:26:45;;;;;;;13.55;10.63;;;;;;;;;;5037734;28;20431;-88
2023/04/30 03:29:11;;;;;;;14.27;10.90;;;;;;;;;;5038800;28;20501;-89
2023/04/30 03:31:40;;;;;;;12.27;10.45;;;;;;;;;;5039242;28;20399;-90
2023/04/30 03:34:06;;;;;;;15.40;10.45;;;;;;;;;;5038972;28;20418;-89
2023/04/30 03:36:32;;;;;;;13.90;11.00;;;;;;;;;;5037933;28;20423;-89
2023/04/30 03:38:58;;;;;;;14.55;10.95;;;;;;;;;;5038776;28;20419;-89
2023/04/30 03:41:24;;;;;;;13.95;11.18;;;;;;;;;;5038259;28;20412;-89
2023/04/30 03:43:51;;;;;;;13.52;11.02;;;;;;;;;;5038563;28;20439;-88
2023/04/30 03:46:17;;;;;;;13.18;10.55;;;;;;;;;;5038364;28;20498;-89
2023/04/30 03:48:43;;;;;;;15.02;11.38;;;;;;;;;;5037747;28;20423;-89
2023/04/30 03:51:12;;;;;;;14.20;11.38;;;;;;;;;;5037969;28;20439;-89
2023/04/30 03:53:38;;;;;;;13.32;10.80;;;;;;;;;;5037911;28;20404;-89
2023/04/30 03:56:04;;;;;;;13.98;11.20;;;;;;;;;;5021712;28;20419;-89
2023/04/30 03:58:32;;;;;;;13.60;12.20;;;;;;;;;;5037840;28;20502;-90
2023/04/30 04:00:59;;;;;;;14.02;11.73;;;;;;;;;;5038213;28;20419;-89
2023/04/30 04:03:25;;;;;;;15.68;12.30;;;;;;;;;;5038146;28;20470;-88
2023/04/30 04:05:51;;;;;;;14.30;12.90;;;;;;;;;;5038101;28;20407;-89
2023/04/30 04:08:19;;;;;;;16.23;13.25;;;;;;;;;;5037951;28;20408;-89
2023/04/30 04:10:45;;;;;;;18.75;13.70;;;;;;;;;;5037650;28;20442;-89
2023/04/30 04:13:11;;;;;;;16.63;14.25;;;;;;;;;;5037993;28;20416;-88
2023/04/30 04:15:40;;;;;;;15.80;13.65;;;;;;;;;;5021614;28;20419;-89
2023/04/30 04:18:07;;;;;;;16.40;13.53;;;;;;;;;;5037690;28;20404;-89
2023/04/30 04:20:33;;;;;;;15.27;13.68;;;;;;;;;;5034437;28;20474;-88
2023/04/30 04:23:02;;;;;;;17.17;14.15;;;;;;;;;;5017623;28;20406;-88
2023/04/30 04:25:28;;;;;;;16.02;14.20;;;;;;;;;;5002247;28;20437;-88
2023/04/30 04:27:55;;;;;;;18.67;14.32;;;;;;;;;;5014639;28;20431;-89
2023/04/30 04:30:21;;;;;;;16.00;13.80;;;;;;;;;;5014860;28;20482;-89
2023/04/30 04:32:53;;;;;;;17.88;14.63;;;;;;;;;;5015507;28;20403;-88
2023/04/30 04:35:19;;;;;;;16.60;14.55;;;;;;;;;;5025243;28;20406;-88
2023/04/30 04:37:48;;;;;;;15.30;13.73;;;;;;;;;;5033913;28;20413;-88
2023/04/30 04:40:14;;;;;;;16.42;14.32;;;;;;;;;;5034969;28;20420;-90
2023/04/30 04:42:40;;;;;;;17.63;14.63;;;;;;;;;;5033897;28;20408;-88
2023/04/30 04:45:07;;;;;;;15.82;14.10;;;;;;;;;;5034932;28;20414;-87
2023/04/30 04:47:33;;;;;;;16.93;14.60;;;;;;;;;;5017993;28;20433;-88
2023/04/30 04:49:59;;;;;;;19.80;14.73;;;;;;;;;;5034032;28;20441;-88
2023/04/30 04:52:25;;;;;;;16.27;14.52;;;;;;;;;;5035028;28;20401;-89
2023/04/30 04:54:51;;;;;;;18.20;15.10;;;;;;;;;;5018210;28;20405;-88
2023/04/30 04:57:18;;;;;;;18.70;14.77;;;;;;;;;;5033471;28;20425;-89
2023/04/30 04:59:44;;;;;;;17.35;15.48;;;;;;;;;;5011333;28;20471;-88
2023/04/30 05:02:10;;;;;;;19.25;14.77;;;;;;;;;;5043483;28;20480;-89
2023/04/30 05:04:36;;;;;;;16.88;14.93;;;;;;;;;;5033224;28;20410;-89
2023/04/30 05:07:06;;;;;;;16.10;14.35;;;;;;;;;;5033032;28;20444;-88
2023/04/30 05:09:32;;;;;;;16.57;14.63;;;;;;;;;;5032431;28;20524;-88
2023/04/30 05:11:58;;;;;;;17.40;15.15;;;;;;;;;;5032613;28;20416;-89
2023/04/30 05:14:27;;;;;;;17.23;14.93;;;;;;;;;;5032379;28;20544;-89
2023/04/30 05:16:53;;;;;;;16.40;14.70;;;;;;;;;;5032694;28;20501;-89
2023/04/30 05:19:19;;;;;;;16.43;14.73;;;;;;;;;;5032851;28;20398;-89
2023/04/30 05:21:47;;;;;;;17.60;15.10;;;;;;;;;;5014538;28;20419;-88
2023/04/30 05:24:13;;;;;;;17.02;14.50;;;;;;;;;;5032426;28;20481;-89
2023/04/30 05:26:39;;;;;;;17.48;14.43;;;;;;;;;;5032504;28;20414;-88
2023/04/30 05:29:05;;;;;;;19.23;14.43;;;;;;;;;;5032533;28;20421;-89
2023/04/30 05:31:33;;;;;;;17.27;14.60;;;;;;;;;;5031926;28;20432;-89
2023/04/30 05:33:59;;;;;;;16.27;14.52;;;;;;;;;;5032379;28;20427;-89
2023/04/30 05:36:25;;;;;;;18.40;15.02;;;;;;;;;;5032088;28;20417;-89
2023/04/30 05:38:52;;;;;;;15.35;13.77;;;;;;;;;;5032370;28;20401;-89
2023/04/30 05:41:20;;;;;;;15.80;13.75;;;;;;;;;;5032161;28;20421;-89
2023/04/30 05:43:47;;;;;;;16.88;14.07;;;;;;;;;;5032554;28;20409;-89
2023/04/30 05:46:13;;;;;;;15.65;13.48;;;;;;;;;;5032396;28;20402;-90
2023/04/30 05:48:39;;;;;;;15.47;13.10;;;;;;;;;;5031845;28;20413;-90
2023/04/30 05:51:06;;;;;;;15.45;12.95;;;;;;;;;;5032002;28;20445;-89
2023/04/30 05:53:32;;;;;;;15.30;12.48;;;;;;;;;;5032339;28;20406;-89
2023/04/30 05:55:58;;;;;;;17.15;12.50;;;;;;;;;;5031934;28;20476;-89
2023/04/30 05:58:24;;;;;;;15.32;12.40;;;;;;;;;;5032210;28;20409;-89
2023/04/30 06:00:53;;;;;;;14.70;12.13;;;;;;;;;;5032025;28;20417;-89
2023/04/30 06:03:19;;;;;;;13.93;12.43;;;;;;;;;;5031659;28;20459;-89
2023/04/30 06:05:46;;;;;;;15.47;12.33;;;;;;;;;;5031551;28;20506;-89
2023/04/30 06:08:12;;;;;;;15.15;12.90;;;;;;;;;;5031839;28;20425;-89
2023/04/30 06:10:38;;;;;;;14.15;12.65;;;;;;;;;;5028840;28;20468;-89
2023/04/30 06:13:04;;;;;;;14.90;12.35;;;;;;;;;;5031849;28;20511;-89
2023/04/30 06:15:31;;;;;;;14.68;12.82;;;;;;;;;;5031455;28;20414;-89
2023/04/30 06:17:59;;;;;;;14.20;12.52;;;;;;;;;;5031922;28;20420;-89
2023/04/30 06:20:26;;;;;;;14.93;13.18;;;;;;;;;;5028723;28;20425;-89
2023/04/30 06:22:52;;;;;;;15.87;13.10;;;;;;;;;;5014855;28;20508;-87
2023/04/30 06:25:19;;;;;;;15.13;13.52;;;;;;;;;;5047223;28;20460;-88
2023/04/30 06:27:50;;;;;;;16.02;13.27;;;;;;;;;;5015707;28;20480;-88
2023/04/30 06:30:16;;;;;;;15.25;13.10;;;;;;;;;;5031710;28;20433;-88
2023/04/30 06:32:42;;;;;;;14.98;12.45;;;;;;;;;;5031439;28;20435;-88
2023/04/30 06:35:08;;;;;;;14.27;12.80;;;;;;;;;;5034526;28;20421;-88
2023/04/30 06:37:36;;;;;;;15.13;12.40;;;;;;;;;;5015378;28;20471;-89
2023/04/30 06:40:06;;;;;;;13.30;11.90;;;;;;;;;;5015574;28;20453;-89
2023/04/30 06:42:33;;;;;;;14.23;12.00;;;;;;;;;;5031803;28;20440;-90
2023/04/30 06:45:05;;;;;;;12.13;10.93;;;;;;;;;;5031614;28;20410;-88
2023/04/30 06:47:36;;;;;;;15.52;11.20;;;;;;;;;;5015213;28;20420;-89
2023/04/30 06:50:05;;;;;;;14.13;11.13;;;;;;;;;;5030253;28;20453;-89
2023/04/30 06:52:31;;;;;;;13.40;11.13;;;;;;;;;;5031309;28;20417;-88
2023/04/30 06:54:57;;;;;;;14.47;11.63;;;;;;;;;;5031082;28;20494;-88
2023/04/30 06:57:24;;;;;;;12.82;11.32;;;;;;;;;;5014806;28;20532;-88
2023/04/30 06:59:50;;;;;;;13.73;11.18;;;;;;;;;;5031104;28;20414;-88
2023/04/30 07:02:16;;;;;;;13.13;10.82;;;;;;;;;;5035515;28;20413;-88
2023/04/30 07:04:42;;;;;;;12.40;9.90;;;;;;;;;;5035531;28;20463;-88
2023/04/30 07:07:11;;;;;;;14.18;10.73;;;;;;;;;;5019139;28;20512;-88
2023/04/30 07:09:37;;;;;;;12.40;10.68;;;;;;;;;;5019614;28;20440;-88
2023/04/30 07:12:03;;;;;;;13.00;10.63;;;;;;;;;;5035416;28;20409;-88
2023/04/30 07:14:29;;;;;;;15.02;10.57;;;;;;;;;;5019340;28;20406;-87
2023/04/30 07:16:58;;;;;;;11.60;10.35;;;;;;;;;;5035406;28;20410;-87
2023/04/30 07:19:25;;;;;;;11.75;10.48;;;;;;;;;;5035071;28;20421;-87
2023/04/30 07:21:51;;;;;;;14.48;10.25;;;;;;;;;;5019152;28;20425;-86
2023/04/30 07:24:17;;;;;;;12.40;10.50;;;;;;;;;;5034720;28;20409;-87
2023/04/30 07:26:44;;;;;;;11.18;9.73;;;;;;;;;;5008192;28;20430;-87
2023/04/30 07:29:10;;;;;;;11.57;9.70;;;;;;;;;;5034742;28;20552;-88
2023/04/30 07:31:36;;;;;;;11.30;9.90;;;;;;;;;;5035236;28;20414;-89
2023/04/30 07:34:05;;;;;;;11.10;9.50;;;;;;;;;;5035477;28;20488;-89
2023/04/30 07:36:31;;;;;;;12.77;9.63;;;;;;;;;;5034627;28;20424;-87
2023/04/30 07:38:57;;;;;;;10.38;8.95;;;;;;;;;;5034538;28;20413;-88
2023/04/30 07:41:26;;;;;;;13.05;9.68;;;;;;;;;;5034884;28;20416;-88
2023/04/30 07:43:53;;;;;;;12.60;9.57;;;;;;;;;;5031739;28;20450;-88
2023/04/30 07:46:19;;;;;;;14.32;9.55;;;;;;;;;;5001422;28;20476;-88
2023/04/30 07:48:45;;;;;;;11.27;9.65;;;;;;;;;;5034561;28;20497;-87
2023/04/30 07:51:14;;;;;;;12.00;9.73;;;;;;;;;;5034577;28;20429;-87
2023/04/30 07:53:40;;;;;;;12.68;9.90;;;;;;;;;;5034447;28;20414;-88
2023/04/30 07:56:07;;;;;;;11.38;9.98;;;;;;;;;;5018016;28;20417;-87
2023/04/30 07:58:33;;;;;;;11.07;9.60;;;;;;;;;;5034737;28;20404;-87
2023/04/30 08:00:59;;;;;;;12.07;9.20;;;;;;;;;;5034443;28;20421;-87
2023/04/30 08:03:25;;;;;;;12.38;9.98;;;;;;;;;;5034213;28;20449;-88
2023/04/30 08:05:52;;;;;;;10.90;9.73;;;;;;;;;;5034653;28;20406;-89
2023/04/30 08:08:20;;;;;;;11.02;9.43;;;;;;;;;;5018453;28;20425;-92
2023/04/30 08:10:47;;;;;;;11.77;10.20;;;;;;;;;;5018899;28;20433;-92
2023/04/30 08:13:13;;;;;;;11.32;9.40;;;;;;;;;;5033900;28;20421;-91
2023/04/30 08:15:39;;;;;;;13.35;9.55;;;;;;;;;;5034624;28;20455;-92
2023/04/30 08:18:09;;;;;;;11.43;9.30;;;;;;;;;;5034744;28;20402;-91
2023/04/30 08:20:35;;;;;;;11.63;9.30;;;;;;;;;;5034701;28;20417;-92
2023/04/30 08:23:01;;;;;;;11.45;9.13;;;;;;;;;;5035045;28;20409;-91
2023/04/30 08:25:30;;;;;;;10.05;9.00;;;;;;;;;;5035779;28;20405;-91
2023/04/30 08:27:56;;;;;;;10.98;8.68;;;;;;;;;;5037633;28;20531;-92
2023/04/30 08:30:23;;;;;;;9.07;7.90;;;;;;;;;;5036849;28;20431;-92
2023/04/30 08:32:50;;;;;;;11.35;8.40;;;;;;;;;;5038056;28;20412;-91
2023/04/30 08:35:16;;;;;;;10.50;7.72;;;;;;;;;;5037183;28;20408;-91
2023/04/30 08:37:42;;;;;;;8.13;7.30;;;;;;;;;;5037665;28;20431;-92
2023/04/30 08:40:10;;;;;;;10.88;7.88;;;;;;;;;;5021154;28;20442;-92
2023/04/30 08:42:37;;;;;;;8.70;7.22;;;;;;;;;;5037705;28;20462;-92
2023/04/30 08:45:03;;;;;;;9.02;7.25;;;;;;;;;;5037150;28;20473;-91
2023/04/30 08:47:30;;;;;;;8.50;6.70;;;;;;;;;;5037186;28;20426;-91
2023/04/30 08:49:56;;;;;;;7.70;6.93;;;;;;;;;;5035863;28;20527;-91
2023/04/30 08:52:22;;;;;;;9.57;7.10;;;;;;;;;;5017687;28;20413;-92
2023/04/30 08:54:50;;;;;;;7.95;7.00;;;;;;;;;;5034428;28;20406;-91
2023/04/30 08:57:16;;;;;;;8.10;7.10;;;;;;;;;;5033977;28;20398;-92
2023/04/30 08:59:46;;;;;;;8.27;7.20;;;;;;;;;;5017182;28;20410;-90
2023/04/30 09:02:12;;;;;;;9.75;7.13;;;;;;;;;;5033890;28;20417;-90
2023/04/30 09:04:38;;;;;;;8.07;6.53;;;;;;;;;;5033950;28;20492;-90
2023/04/30 09:07:07;;;;;;;7.60;6.47;;;;;;;;;;5033071;28;20424;-90
2023/04/30 09:09:37;;;;;;;8.00;6.13;;;;;;;;;;5036773;28;20516;-90
2023/04/30 09:12:13;;;;;;;7.90;6.10;;;;;;;;;;5036627;28;20411;-91
2023/04/30 09:14:57;;;;;;;6.40;5.72;;;;;;;;;;5036866;28;20411;-91
2023/04/30 09:17:24;;;;;;;7.75;5.78;;;;;;;;;;5037042;28;20487;-89
2023/04/30 09:19:53;;;;;;;7.43;5.70;;;;;;;;;;5036728;28;20426;-89
2023/04/30 09:22:23;;;;;;;6.25;5.55;;;;;;;;;;5036721;28;20410;-89
2023/04/30 09:24:52;;;;;;;7.20;5.90;;;;;;;;;;5033625;28;20420;-89
2023/04/30 09:27:19;;;;;;;9.87;5.77;;;;;;;;;;5030361;28;20447;-87
2023/04/30 09:29:45;;;;;;;6.57;5.90;;;;;;;;;;5036026;28;20443;-91
2023/04/30 09:32:12;;;;;;;6.53;5.63;;;;;;;;;;5036563;28;20495;-89
2023/04/30 09:34:38;;;;;;;8.60;5.60;;;;;;;;;;5036251;28;20411;-90
2023/04/30 09:37:07;;;;;;;6.75;5.43;;;;;;;;;;5036354;28;20401;-91
2023/04/30 09:39:35;;;;;;;6.93;5.72;;;;;;;;;;5036149;28;20410;-89
2023/04/30 09:42:08;;;;;;;6.47;5.78;;;;;;;;;;5032467;28;20497;-90
2023/04/30 09:44:39;;;;;;;6.63;5.25;;;;;;;;;;5029135;28;20412;-91
2023/04/30 09:47:11;;;;;;;6.53;5.30;;;;;;;;;;5036839;28;20438;-90
2023/04/30 09:49:37;;;;;;;7.78;5.25;;;;;;;;;;5035645;28;20514;-91
2023/04/30 09:52:03;;;;;;;6.55;4.95;;;;;;;;;;5035972;28;20408;-90
2023/04/30 09:54:32;;;;;;;10.27;5.47;;;;;;;;;;5036052;28;20469;-90
2023/04/30 09:57:00;;;;;;;10.20;5.50;;;;;;;;;;5035938;28;20408;-90
2023/04/30 09:59:36;;;;;;;11.25;5.40;;;;;;;;;;5019096;28;20490;-90
2023/04/30 10:02:03;;;;;;;7.90;5.18;;;;;;;;;;5035570;28;20484;-90
2023/04/30 10:04:34;;;;;;;11.90;5.63;;;;;;;;;;5035805;28;20411;-90
2023/04/30 10:07:01;;;;;;;7.20;5.17;;;;;;;;;;5036570;28;20415;-90
2023/04/30 10:09:29;;;;;;;5.97;4.97;;;;;;;;;;5035986;28;20435;-93
2023/04/30 10:11:57;;;;;;;7.93;5.28;;;;;;;;;;5035703;28;20424;-93
2023/04/30 10:14:24;;;;;;;7.03;4.80;;;;;;;;;;5036153;28;20412;-90
2023/04/30 10:16:58;;;;;;;10.17;4.90;;;;;;;;;;5035794;28;20408;-91
2023/04/30 10:19:25;;;;;;;6.63;4.80;;;;;;;;;;5036107;28;20412;-91
2023/04/30 10:21:51;;;;;;;11.85;5.10;;;;;;;;;;5035276;28;20412;-91
2023/04/30 10:24:18;;;;;;;9.60;4.90;;;;;;;;;;5035245;28;20408;-92
2023/04/30 10:26:48;;;;;;;15.30;5.67;;;;;;;;;;5035274;28;20480;-92
2023/04/30 10:29:14;;;;;;;5.55;4.55;;;;;;;;;;5034990;28;20458;-90
2023/04/30 10:31:41;;;;;;;6.38;4.15;;;;;;;;;;5036639;28;20420;-90
2023/04/30 10:34:27;;;;;;;5.80;4.10;;;;;;;;;;5036023;28;20550;-90
2023/04/30 10:36:58;;;;;;;17.50;5.90;;;;;;;;;;5035510;28;20406;-92
2023/04/30 10:39:26;;;;;;;17.30;5.68;;;;;;;;;;5035909;28;20494;-91
2023/04/30 10:42:00;;;;;;;5.20;4.35;;;;;;;;;;5032249;28;20487;-90
2023/04/30 10:44:26;;;;;;;6.20;4.47;;;;;;;;;;5016123;28;20409;-90
2023/04/30 10:47:05;;;;;;;8.88;4.57;;;;;;;;;;5031623;28;20175;-91
2023/04/30 10:49:31;;;;;;;6.82;4.50;;;;;;;;;;5036084;28;20204;-92
2023/04/30 10:52:02;;;;;;;5.38;4.10;;;;;;;;;;5036253;28;20172;-92
2023/04/30 10:54:31;;;;;;;7.18;4.25;;;;;;;;;;5036259;28;20176;-92
2023/04/30 10:57:16;;;;;;;4.90;4.20;;;;;;;;;;5035650;28;20405;-93
2023/04/30 10:59:46;;;;;;;5.97;4.20;;;;;;;;;;5035445;28;20462;-91
2023/04/30 11:02:15;;;;;;;6.15;4.47;;;;;;;;;;5036105;28;20179;-91
2023/04/30 11:05:14;;;;;;;5.90;4.30;;;;;;;;;;5036099;28;20180;-91
2023/04/30 11:07:50;;;;;;;5.70;4.25;;;;;;;;;;4989303;28;20412;-90
2023/04/30 11:10:17;;;;;;;5.47;4.20;;;;;;;;;;5016031;28;20215;-92
2023/04/30 11:12:50;;;;;;;5.88;4.30;;;;;;;;;;5019650;28;20184;-91
2023/04/30 11:15:21;;;;;;;6.80;4.50;;;;;;;;;;5035980;28;20416;-92
2023/04/30 11:17:48;;;;;;;5.22;4.30;;;;;;;;;;5019273;28;20436;-91
2023/04/30 11:20:18;;;;;;;6.32;4.13;;;;;;;;;;5035586;28;20415;-90
2023/04/30 11:22:45;;;;;;;5.40;4.10;;;;;;;;;;5035961;28;20420;-90
2023/04/30 11:25:12;;;;;;;5.93;4.47;;;;;;;;;;5035180;28;20408;-91
2023/04/30 11:27:40;;;;;;;5.85;4.30;;;;;;;;;;5009888;28;20424;-91
2023/04/30 11:30:14;;;;;;;5.03;4.25;;;;;;;;;;5015814;28;20429;-90
2023/04/30 11:32:43;;;;;;;5.35;4.20;;;;;;;;;;5015876;28;20410;-91
2023/04/30 11:35:09;;;;;;;5.05;4.20;;;;;;;;;;5017505;28;20433;-91
2023/04/30 11:37:42;;;;;;;5.78;3.70;;;;;;;;;;5032191;28;20449;-91
2023/04/30 11:40:09;;;;;;;5.17;4.20;;;;;;;;;;5015834;28;20421;-91
2023/04/30 11:42:38;;;;;;;4.82;3.95;;;;;;;;;;5022339;28;20448;-91
2023/04/30 11:45:04;;;;;;;5.75;3.90;;;;;;;;;;5032478;28;20497;-90
2023/04/30 11:47:40;;;;;;;5.47;4.10;;;;;;;;;;5033399;28;20409;-83
2023/04/30 11:50:07;;;;;;;4.65;3.60;;;;;;;;;;5035182;28;20429;-83
2023/04/30 11:52:33;;;;;;;3.78;3.20;;;;;;;;;;5036556;28;20416;-83
2023/04/30 11:54:59;;;;;;;5.75;3.90;;;;;;;;;;5038896;28;20423;-85
2023/04/30 11:57:26;;;;;;;7.82;7.07;;;;;;;;;;5039200;28;20334;-83
2023/04/30 11:59:52;;;;;;;6.75;4.00;;;;;;;;;;5039093;28;20412;-84
2023/04/30 12:02:18;;;;;;;4.60;3.50;;;;;;;;;;5039299;28;20431;-83
2023/04/30 12:04:44;;;;;;;5.13;3.70;;;;;;;;;;5038556;28;20491;-84
2023/04/30 12:07:10;;;;;;;6.15;3.63;;;;;;;;;;5038155;28;20411;-83
2023/04/30 12:10:02;;;;;;;5.43;3.83;;;;;;;;;;5038451;28;20440;-84
2023/04/30 12:12:32;;;;;;;6.47;3.65;;;;;;;;;;5008440;28;20428;-83
2023/04/30 12:14:58;;;;;;;4.70;3.45;;;;;;;;;;5038326;28;20415;-84
2023/04/30 12:17:33;;;;;;;4.88;3.90;;;;;;;;;;5038228;28;20546;-86
2023/04/30 12:20:00;;;;;;;4.10;3.07;;;;;;;;;;5037939;28;20427;-86
2023/04/30 12:22:26;;;;;;;4.53;3.00;;;;;;;;;;5021527;28;20415;-86
2023/04/30 12:24:52;;;;;;;8.03;3.43;;;;;;;;;;5037964;28;20411;-85
2023/04/30 12:27:18;;;;;;;3.63;2.63;;;;;;;;;;5038016;28;20427;-86
2023/04/30 12:29:48;;;;;;;3.67;3.00;;;;;;;;;;5037238;28;20432;-86
2023/04/30 12:32:17;;;;;;;4.05;3.00;;;;;;;;;;5021524;28;20415;-85
2023/04/30 12:34:43;;;;;;;3.65;3.22;;;;;;;;;;5037366;28;20412;-85
2023/04/30 12:37:09;;;;;;;4.22;3.30;;;;;;;;;;5037709;28;20450;-83
2023/04/30 12:39:35;;;;;;;4.45;2.90;;;;;;;;;;5037798;28;20404;-84
2023/04/30 12:42:05;;;;;;;5.30;2.70;;;;;;;;;;5037849;28;20405;-84
2023/04/30 12:44:31;;;;;;;14.30;3.42;;;;;;;;;;5037322;28;20412;-84
2023/04/30 12:46:59;;;;;;;5.18;3.25;;;;;;;;;;5037340;28;20408;-83
2023/04/30 12:49:26;;;;;;;3.85;3.00;;;;;;;;;;5037571;28;20447;-84
2023/04/30 12:51:56;;;;;;;7.28;3.13;;;;;;;;;;5037838;28;20430;-84
2023/04/30 12:54:26;;;;;;;5.88;3.15;;;;;;;;;;5037705;28;20400;-85
2023/04/30 12:57:00;;;;;;;6.35;3.22;;;;;;;;;;5037380;28;20434;-84
2023/04/30 12:59:26;;;;;;;8.88;3.30;;;;;;;;;;5036781;28;20490;-84
2023/04/30 13:01:53;;;;;;;6.15;3.20;;;;;;;;;;5037472;28;20479;-86
2023/04/30 13:04:22;;;;;;;10.60;3.40;;;;;;;;;;5036959;28;20400;-85
2023/04/30 13:06:48;;;;;;;11.60;3.13;;;;;;;;;;5037202;28;20412;-85
2023/04/30 13:09:14;;;;;;;13.20;3.07;;;;;;;;;;5037345;28;20408;-84
2023/04/30 13:11:41;;;;;;;803.00;51.28;;;;;;;;;;5037185;28;20396;-84
2023/04/30 13:14:10;;;;;;;11.93;3.47;;;;;;;;;;5037035;28;20407;-84
2023/04/30 13:16:36;;;;;;;4.43;2.70;;;;;;;;;;5036439;28;20405;-84
2023/04/30 13:19:03;;;;;;;3.55;2.50;;;;;;;;;;5036756;28;20403;-84
2023/04/30 13:21:30;;;;;;;4.50;2.80;;;;;;;;;;5020608;28;20412;-84
2023/04/30 13:23:56;;;;;;;3.78;2.70;;;;;;;;;;5036675;28;20415;-83
2023/04/30 13:26:22;;;;;;;3.67;2.85;;;;;;;;;;5020033;28;20514;-84
2023/04/30 13:28:48;;;;;;;4.32;3.03;;;;;;;;;;5036133;28;20436;-84
2023/04/30 13:31:22;;;;;;;5.32;3.03;;;;;;;;;;5035771;28;20440;-84
2023/04/30 13:33:53;;;;;;;6.88;3.10;;;;;;;;;;5036021;28;20415;-85
2023/04/30 13:36:19;;;;;;;6.18;2.90;;;;;;;;;;5035678;28;20475;-85
2023/04/30 13:38:46;;;;;;;3.85;2.70;;;;;;;;;;5036535;28;20434;-84
2023/04/30 13:41:12;;;;;;;4.90;3.13;;;;;;;;;;5035460;28;20412;-85
2023/04/30 13:43:47;;;;;;;3.38;2.58;;;;;;;;;;5035968;28;20412;-87
2023/04/30 13:46:13;;;;;;;5.07;2.90;;;;;;;;;;5036651;28;20474;-86
2023/04/30 13:48:40;;;;;;;8.20;3.10;;;;;;;;;;5032413;28;20467;-87
2023/04/30 13:51:06;;;;;;;4.70;2.95;;;;;;;;;;5018407;28;20463;-87
2023/04/30 13:53:34;;;;;;;4.47;2.67;;;;;;;;;;5036295;28;20431;-87
2023/04/30 13:56:02;;;;;;;4.60;2.80;;;;;;;;;;5035677;28;20419;-86
2023/04/30 13:58:28;;;;;;;5.40;2.80;;;;;;;;;;5036125;28;20404;-87
2023/04/30 14:00:57;;;;;;;8.05;2.83;;;;;;;;;;5036006;28;20411;-87
2023/04/30 14:03:23;;;;;;;7.57;3.08;;;;;;;;;;5036419;28;20419;-85
2023/04/30 14:05:49;;;;;;;4.00;2.40;;;;;;;;;;5036095;28;20490;-86
2023/04/30 14:08:15;;;;;;;4.80;2.38;;;;;;;;;;5015933;28;20429;-85
2023/04/30 14:10:41;;;;;;;3.63;2.20;;;;;;;;;;5015638;28;20430;-85
2023/04/30 14:13:07;;;;;;;4.80;2.40;;;;;;;;;;5015829;28;20447;-85
2023/04/30 14:15:35;;;;;;;3.77;2.30;;;;;;;;;;5015893;28;20409;-87
2023/04/30 14:18:03;;;;;;;12.57;2.63;;;;;;;;;;5016183;28;20432;-86
2023/04/30 14:20:30;;;;;;;3.60;2.30;;;;;;;;;;5017024;28;20177;-87
2023/04/30 14:22:56;;;;;;;4.72;2.38;;;;;;;;;;5016198;28;20420;-87
2023/04/30 14:25:22;;;;;;;4.30;2.20;;;;;;;;;;5016118;28;20497;-87
2023/04/30 14:27:48;;;;;;;2.70;1.90;;;;;;;;;;5015538;28;20446;-87
2023/04/30 14:30:14;;;;;;;11.00;2.33;;;;;;;;;;5015912;28;20437;-87
2023/04/30 14:32:40;;;;;;;4.43;2.10;;;;;;;;;;5016186;28;20421;-86
2023/04/30 14:35:07;;;;;;;5.30;2.20;;;;;;;;;;5015554;28;20410;-86